Leland, Washington
Current Conditions -  °F | °C
As of 12:56 AM on Monday 20 Oct 2014 (Local Time) from KNUW Reporting Station
Light Rain Light Rain  
Wind Chill: 61°   Ceiling: 8500
Heat Index: 61°   Visibility: 10mi
Dew Point: 56°   Wind: 16mph
Humidity: 83%   Direction: 130°SE
Pressure: 29.67"   Gusts: 24mph
Location:  48.026°N, 122.859°W
Report Text: KNUW 200756Z 13014G21KT 10SM -RA FEW012 BKN085 OVC100 16/13 A2967 RMK AO2 SLP049 P0007 T01610133 $
Loading
Personal Weather Stations






























Interactive Weather Map
Tropical Storm Tracking
New forecast layout! Learn more

10-Day Weather Forecast

Advertisements
Track Severe Weather on mobile